Terminal Aerodrome Forecast
Issued by NWS Amarillo, TX

Home | Current Version | Previous Version | Text Only | Print | Product List | Glossary On
Versions: 1 2 3 4 5 6 7 8 9 10 11 12 13 14 15
730
FTUS44 KAMA 222320
TAFDHT
TAF
KDHT 222320Z 2300/2324 14008KT P6SM VCTS BKN090CB
      TEMPO 2300/2303 VRB15G45KT 4SM TSRA BKN040CB
     FM230300 07012KT P6SM SCT100
     FM230900 02025G35KT P6SM SCT150
     FM231500 02027G37KT P6SM OVC015
     FM232300 05015KT P6SM OVC040=

USA.gov is the U.S. government's official web portal to all federal, state and local government web resources and services.